ADDS METAR Data INFO
IDs: Format: Raw Decoded Include TAF

Data at: 1334 UTC 19 Jul 2018

METAR for:KTPA (Tampa Intl Arpt, FL, US)
Text:KTPA 191253Z 17007KT 10SM FEW025 SCT250 29/24 A2999 RMK AO2 SLP155 TCU DSNT SE-S T02890244
Temperature: 28.9°C ( 84°F)
Dewpoint: 24.4°C ( 76°F) [RH = 77%]
Pressure (altimeter):29.99 inches Hg (1015.7 mb) [Sea level pressure: 1015.5 mb]
Winds:from the S (170 degrees) at 8 MPH (7 knots; 3.6 m/s)
Visibility:10 or more sm (16+ km)
Ceiling:at least 12,000 feet AGL
Clouds: few clouds at 2500 feet AGL, scattered clouds at 25000 feet AGL